map of URT home
URT - Airport
Location
City:  Surat Thani, Surat Thani, Thailand
ICAO:VTSB
IATA:URT

Details
Type:Airport (Aerodrome, Airfield)
Use:Public/Civil, Military
Latitude:9°07'57"N (9.132603)
Longitude:99°08'08"E (99.135586)
Datum:WGS 1984
Elevation:20 ft (6 m)
Variation:0.39°W (WMM2015 magnetic declination)
0.02° annual change
Runways:1
Longest:9843 × 148 ft (3000 × 45 m), paved

Time
Time Zone:UTC+7
Local Time:

Weather
METAR:VTSB 161500Z 35003KT 7000 -RA SCT018 OVC100 25/25 Q1015
TAF:VTSB 161100Z 1612/1712 02005KT 9000 -RA SCT015 BKN100
TEMPO 1612/1618 3000 RA
TEMPO 1621/1703 5000 -RA BR

Related Locations
Nearby:
Farthest:TRU: 12303 mi / 19800 km
Trujillo [Capitán FAP Carlos Martínez de Pinillos Intl], LAL, PE

Find:

   beyond  
but within

Other Information
Maps:
NOTAMs:
Links:
Sources:

  
  • flag of Thailand
  

Sectional Chart

Flight Planning
at skyvector.com

Satellite Image

Google Maps Satellite view

 

Copyright © 2004-2018 Karl L. Swartz. All rights reserved.
The Great Circle Mapper name and logo are trademarks of the Great Circle Mapper.
All other trademarks mentioned herein belong to their respective owners.
Please see credits for attibutions and further copyright information.

  Follow gcmap on Facebook Follow gcmap on Twitter Follow gcmap on Google+ GCmap on LinkedIn

hCard Microformat

Geo Microformat